createdAt,value
2022-11-25T00:01:09.261Z,2.00
2022-11-25T00:03:14.251Z,2.20
2022-11-25T00:05:20.606Z,2.20
2022-11-25T00:07:26.221Z,2.20
2022-11-25T00:09:33.790Z,2.20
2022-11-25T00:11:39.701Z,2.30
2022-11-25T00:13:46.965Z,2.30
2022-11-25T00:15:52.145Z,2.20
2022-11-25T00:17:57.449Z,2.40
2022-11-25T00:20:04.742Z,2.40
2022-11-25T00:22:09.702Z,2.40
2022-11-25T00:24:18.863Z,2.30
2022-11-25T00:26:28.447Z,2.40
2022-11-25T00:28:33.785Z,2.40
2022-11-25T00:30:39.184Z,2.40
2022-11-25T00:32:44.175Z,2.40
2022-11-25T00:34:50.517Z,2.30
2022-11-25T00:36:56.504Z,2.30
2022-11-25T00:39:03.952Z,2.30
2022-11-25T00:41:21.440Z,2.30
2022-11-25T00:43:41.748Z,2.30
2022-11-25T00:45:48.633Z,2.30
2022-11-25T00:47:55.523Z,2.30
2022-11-25T00:50:00.492Z,2.40
2022-11-25T00:52:07.142Z,2.30
2022-11-25T00:54:13.496Z,2.30
2022-11-25T00:56:18.785Z,2.20
2022-11-25T00:58:23.750Z,2.10
2022-11-25T01:00:32.087Z,2.10
2022-11-25T01:02:40.597Z,2.10
2022-11-25T01:04:46.189Z,2.10
2022-11-25T01:06:54.451Z,2.10
2022-11-25T01:08:59.462Z,2.00
2022-11-25T01:11:07.170Z,2.10
2022-11-25T01:13:12.180Z,2.20
2022-11-25T01:15:17.497Z,2.00
2022-11-25T01:17:25.792Z,2.00
2022-11-25T01:19:33.135Z,2.10
2022-11-25T01:21:38.719Z,2.10
2022-11-25T01:23:48.806Z,2.10
2022-11-25T01:25:54.293Z,2.00
2022-11-25T01:27:59.266Z,2.00
2022-11-25T01:30:05.475Z,2.00
2022-11-25T01:32:11.493Z,2.20
2022-11-25T01:34:22.852Z,2.10
2022-11-25T01:36:28.958Z,2.20
2022-11-25T01:38:37.301Z,2.10
2022-11-25T01:40:43.169Z,2.10
2022-11-25T01:42:52.944Z,2.10
2022-11-25T01:45:38.450Z,2.10
2022-11-25T01:47:44.724Z,2.10
2022-11-25T01:49:59.167Z,2.10
2022-11-25T01:52:12.538Z,2.10
2022-11-25T01:54:25.299Z,2.10
2022-11-25T01:56:38.787Z,2.10
2022-11-25T01:58:45.226Z,2.10
2022-11-25T02:00:54.074Z,2.10
2022-11-25T02:03:00.676Z,2.10
2022-11-25T02:05:13.970Z,2.10
2022-11-25T02:07:28.064Z,2.10
2022-11-25T02:09:36.769Z,2.10
2022-11-25T02:11:45.772Z,2.00
2022-11-25T02:13:53.199Z,2.00
2022-11-25T02:15:59.126Z,2.00
2022-11-25T02:18:04.816Z,2.00
2022-11-25T02:20:17.147Z,2.10
2022-11-25T02:22:29.830Z,2.10
2022-11-25T02:24:46.196Z,2.10
2022-11-25T02:26:55.339Z,2.10
2022-11-25T02:29:01.583Z,2.10
2022-11-25T02:31:11.058Z,1.90
2022-11-25T02:33:16.154Z,1.80
2022-11-25T02:35:35.087Z,1.70
2022-11-25T02:37:40.116Z,1.70
2022-11-25T02:39:46.297Z,1.60
2022-11-25T02:41:59.056Z,1.60
2022-11-25T02:44:05.022Z,1.50
2022-11-25T02:46:20.299Z,1.50
2022-11-25T02:48:52.788Z,1.70
2022-11-25T02:50:53.523Z,1.80
2022-11-25T02:52:58.836Z,1.80
2022-11-25T02:55:03.863Z,1.90
2022-11-25T02:57:11.587Z,1.80
2022-11-25T02:59:16.733Z,1.60
2022-11-25T03:01:22.714Z,1.70
2022-11-25T03:03:28.724Z,1.70
2022-11-25T03:05:33.863Z,1.80
2022-11-25T03:07:39.790Z,1.70
2022-11-25T03:09:45.283Z,1.60
2022-11-25T03:12:08.811Z,1.50
2022-11-25T03:14:17.226Z,1.50
2022-11-25T03:16:22.255Z,1.60
2022-11-25T03:18:27.671Z,1.80
2022-11-25T03:20:33.976Z,1.80
2022-11-25T03:22:41.594Z,1.70
2022-11-25T03:24:46.964Z,1.60
2022-11-25T03:26:52.096Z,1.60
2022-11-25T03:28:57.637Z,1.60
2022-11-25T03:31:05.609Z,1.70
2022-11-25T03:33:11.041Z,1.80
2022-11-25T03:35:17.913Z,1.70
2022-11-25T03:37:23.750Z,1.70
2022-11-25T03:39:29.080Z,1.70
2022-11-25T03:41:34.112Z,1.80
2022-11-25T03:43:39.580Z,1.90
2022-11-25T03:45:45.270Z,1.90
2022-11-25T03:47:53.143Z,1.90
2022-11-25T03:49:58.583Z,2.00
2022-11-25T03:52:04.585Z,2.00
2022-11-25T03:54:09.927Z,2.00
2022-11-25T03:56:34.941Z,2.00
2022-11-25T03:58:39.992Z,2.00
2022-11-25T04:00:47.155Z,2.10
2022-11-25T04:02:56.167Z,2.10
2022-11-25T04:05:00.976Z,2.10
2022-11-25T04:07:06.397Z,2.20
2022-11-25T04:09:14.989Z,2.30
2022-11-25T04:11:20.641Z,2.30
2022-11-25T04:13:28.225Z,2.40
2022-11-25T04:15:33.805Z,2.50
2022-11-25T04:17:39.423Z,2.50
2022-11-25T04:19:47.021Z,2.50
2022-11-25T04:21:52.586Z,2.50
2022-11-25T04:23:58.621Z,2.50
2022-11-25T04:26:04.182Z,2.60
2022-11-25T04:28:14.462Z,2.60
2022-11-25T04:30:20.619Z,2.60
2022-11-25T04:32:27.374Z,2.60
2022-11-25T04:34:33.360Z,2.60
2022-11-25T04:36:41.157Z,2.60
2022-11-25T04:38:46.382Z,2.60
2022-11-25T04:40:51.729Z,2.70
2022-11-25T04:43:06.107Z,2.70
2022-11-25T04:45:23.313Z,2.60
2022-11-25T04:47:32.066Z,2.70
2022-11-25T04:49:37.378Z,2.70
2022-11-25T04:51:45.145Z,2.70
2022-11-25T04:53:50.733Z,2.70
2022-11-25T04:55:56.096Z,2.60
2022-11-25T04:58:01.136Z,2.60
2022-11-25T05:00:08.192Z,2.70
2022-11-25T05:02:18.268Z,2.70
2022-11-25T05:04:32.146Z,2.70
2022-11-25T05:06:38.861Z,2.70
2022-11-25T05:08:47.659Z,2.70
2022-11-25T05:10:52.819Z,2.70
2022-11-25T05:12:58.138Z,2.70
2022-11-25T05:15:04.986Z,2.70
2022-11-25T05:17:15.288Z,2.70
2022-11-25T05:19:21.453Z,2.80
2022-11-25T05:21:27.514Z,2.70
2022-11-25T05:23:33.193Z,2.80
2022-11-25T05:25:41.665Z,2.80
2022-11-25T05:28:13.759Z,2.80
2022-11-25T05:30:19.034Z,2.80
2022-11-25T05:32:24.890Z,2.80
2022-11-25T05:34:30.177Z,2.80
2022-11-25T05:36:35.516Z,2.80
2022-11-25T05:38:41.524Z,2.80
2022-11-25T05:40:51.714Z,2.80
2022-11-25T05:42:56.860Z,2.80
2022-11-25T05:45:02.287Z,2.90
2022-11-25T05:47:08.775Z,2.90
2022-11-25T05:49:13.876Z,2.90
2022-11-25T05:51:19.194Z,2.90
2022-11-25T05:53:24.914Z,2.90
2022-11-25T05:55:34.332Z,2.90
2022-11-25T05:57:44.761Z,2.90
2022-11-25T05:59:50.509Z,3.00
2022-11-25T06:02:06.887Z,2.90
2022-11-25T06:04:13.954Z,2.90
2022-11-25T06:06:19.275Z,3.00
2022-11-25T06:08:24.748Z,3.00
2022-11-25T06:10:29.797Z,3.00
2022-11-25T06:12:35.899Z,3.00
2022-11-25T06:14:43.800Z,3.10
2022-11-25T06:16:48.923Z,3.00
2022-11-25T06:19:09.847Z,3.00
2022-11-25T06:21:16.746Z,3.10
2022-11-25T06:23:24.644Z,3.00
2022-11-25T06:25:29.640Z,3.00
2022-11-25T06:28:04.535Z,3.00
2022-11-25T06:30:03.703Z,3.00
2022-11-25T06:32:08.794Z,3.10
2022-11-25T06:34:18.508Z,3.10
2022-11-25T06:36:25.186Z,3.10
2022-11-25T06:38:31.273Z,3.10
2022-11-25T06:40:37.013Z,3.10
2022-11-25T06:42:43.441Z,3.20
2022-11-25T06:44:49.050Z,3.20
2022-11-25T06:46:57.234Z,3.30
2022-11-25T06:49:03.240Z,3.20
2022-11-25T06:51:11.549Z,3.30
2022-11-25T06:53:21.208Z,3.30
2022-11-25T06:55:29.278Z,3.30
2022-11-25T06:57:35.160Z,3.30
2022-11-25T06:59:40.419Z,3.30
2022-11-25T07:01:46.077Z,3.40
2022-11-25T07:03:56.511Z,3.40
2022-11-25T07:06:02.262Z,3.40
2022-11-25T07:08:07.787Z,3.40
2022-11-25T07:10:14.183Z,3.40
2022-11-25T07:12:19.127Z,3.40
2022-11-25T07:14:25.532Z,3.50
2022-11-25T07:16:31.614Z,3.50
2022-11-25T07:18:39.911Z,3.50
2022-11-25T07:20:47.266Z,3.60
2022-11-25T07:22:53.544Z,3.60
2022-11-25T07:24:58.736Z,3.60
2022-11-25T07:27:06.473Z,3.70
2022-11-25T07:29:50.468Z,3.70
2022-11-25T07:31:44.258Z,3.70
2022-11-25T07:33:49.829Z,3.80
2022-11-25T07:35:57.660Z,3.80
2022-11-25T07:38:02.730Z,3.80
2022-11-25T07:40:10.081Z,3.90
2022-11-25T07:42:15.071Z,3.90
2022-11-25T07:44:20.124Z,4.00
2022-11-25T07:46:34.287Z,4.10
2022-11-25T07:48:39.654Z,4.10
2022-11-25T07:50:46.044Z,4.10
2022-11-25T07:52:55.098Z,4.10
2022-11-25T07:55:00.061Z,4.20
2022-11-25T07:57:08.474Z,4.30
2022-11-25T07:59:16.959Z,4.30
2022-11-25T08:01:22.768Z,4.50
2022-11-25T08:03:31.099Z,4.50
2022-11-25T08:05:36.088Z,4.50
2022-11-25T08:07:41.838Z,4.50
2022-11-25T08:09:51.847Z,4.60
2022-11-25T08:11:57.030Z,4.60
2022-11-25T08:14:02.941Z,4.60
2022-11-25T08:16:09.325Z,4.60
2022-11-25T08:18:14.638Z,4.60
2022-11-25T08:20:19.780Z,4.60
2022-11-25T08:22:25.102Z,4.60
2022-11-25T08:24:32.542Z,4.60
2022-11-25T08:26:40.480Z,4.60
2022-11-25T08:28:45.626Z,4.50
2022-11-25T08:30:50.633Z,4.60
2022-11-25T08:32:58.084Z,4.60
2022-11-25T08:35:05.875Z,4.60
2022-11-25T08:37:11.274Z,4.60
2022-11-25T08:39:44.317Z,4.60
2022-11-25T08:41:43.928Z,4.60
2022-11-25T08:43:49.357Z,4.60
2022-11-25T08:45:56.439Z,4.60
2022-11-25T08:48:01.382Z,4.70
2022-11-25T08:50:10.362Z,4.70
2022-11-25T08:52:15.348Z,4.80
2022-11-25T08:54:20.432Z,4.80
2022-11-25T08:56:27.075Z,4.80
2022-11-25T08:58:40.909Z,4.90
2022-11-25T09:00:47.994Z,5.00
2022-11-25T09:02:58.849Z,5.10
2022-11-25T09:05:04.398Z,5.10
2022-11-25T09:07:09.626Z,5.10
2022-11-25T09:09:14.624Z,5.10
2022-11-25T09:11:20.353Z,5.20
2022-11-25T09:13:27.199Z,5.20
2022-11-25T09:15:35.953Z,5.30
2022-11-25T09:17:40.963Z,5.40
2022-11-25T09:19:49.048Z,5.40
2022-11-25T09:21:54.452Z,5.50
2022-11-25T09:24:00.061Z,5.50
2022-11-25T09:26:06.824Z,5.60
2022-11-25T09:28:13.102Z,5.70
2022-11-25T09:30:19.118Z,5.70
2022-11-25T09:32:27.071Z,5.70
2022-11-25T09:34:31.893Z,5.80
2022-11-25T09:36:36.904Z,5.80
2022-11-25T09:38:44.281Z,5.90
2022-11-25T09:40:57.557Z,5.90
2022-11-25T09:43:32.319Z,6.00
2022-11-25T09:46:00.510Z,6.00
2022-11-25T09:48:28.982Z,6.10
2022-11-25T09:50:51.753Z,6.10
2022-11-25T09:53:08.349Z,6.10
2022-11-25T09:55:22.069Z,6.00
2022-11-25T09:57:34.612Z,6.00
2022-11-25T09:59:49.615Z,6.00
2022-11-25T10:02:03.981Z,6.00
2022-11-25T10:04:19.864Z,6.00
2022-11-25T10:06:27.633Z,5.90
2022-11-25T10:08:39.876Z,5.90
2022-11-25T10:10:51.124Z,5.90
2022-11-25T10:12:58.286Z,5.90
2022-11-25T10:15:07.367Z,5.90
2022-11-25T10:17:25.658Z,5.90
2022-11-25T10:19:48.105Z,5.90
2022-11-25T10:21:54.624Z,5.90
2022-11-25T10:24:00.792Z,5.90
2022-11-25T10:26:15.694Z,5.80
2022-11-25T10:28:23.446Z,5.90
2022-11-25T10:30:34.750Z,5.80
2022-11-25T10:32:46.053Z,5.80
2022-11-25T10:35:00.613Z,5.80
2022-11-25T10:37:15.004Z,5.80
2022-11-25T10:39:29.684Z,5.90
2022-11-25T10:41:41.249Z,5.90
2022-11-25T10:43:52.373Z,5.90
2022-11-25T10:46:11.721Z,5.90
2022-11-25T10:48:34.394Z,5.90
2022-11-25T10:51:01.781Z,6.00
2022-11-25T10:53:16.709Z,6.00
2022-11-25T10:55:25.838Z,6.10
2022-11-25T10:57:32.373Z,6.10
2022-11-25T10:59:40.365Z,6.10
2022-11-25T11:01:46.124Z,6.10
2022-11-25T11:03:57.458Z,6.10
2022-11-25T11:06:08.404Z,6.10
2022-11-25T11:08:22.694Z,6.20
2022-11-25T11:10:29.309Z,6.10
2022-11-25T11:12:35.964Z,6.20
2022-11-25T11:14:44.782Z,6.20
2022-11-25T11:16:57.228Z,6.20
2022-11-25T11:19:02.896Z,6.20
2022-11-25T11:21:27.136Z,6.20
2022-11-25T11:23:33.276Z,6.20
2022-11-25T11:25:43.833Z,6.20
2022-11-25T11:27:49.980Z,6.20
2022-11-25T11:30:13.796Z,6.30
2022-11-25T11:32:27.577Z,6.30
2022-11-25T11:35:06.690Z,6.40
2022-11-25T11:37:42.743Z,6.40
2022-11-25T11:40:16.752Z,6.40
2022-11-25T11:42:35.651Z,6.40
2022-11-25T11:44:57.287Z,6.40
2022-11-25T11:47:17.938Z,6.40
2022-11-25T11:50:10.503Z,6.40
2022-11-25T11:52:32.338Z,6.50
2022-11-25T11:54:43.766Z,6.50
2022-11-25T11:56:56.181Z,6.40
2022-11-25T11:59:37.397Z,6.50
2022-11-25T12:01:58.092Z,6.40
2022-11-25T12:04:19.136Z,6.40
2022-11-25T12:06:26.513Z,6.40
2022-11-25T12:08:45.097Z,6.40
2022-11-25T12:10:54.478Z,6.40
2022-11-25T12:13:11.249Z,6.40
2022-11-25T12:15:23.980Z,6.40
2022-11-25T12:17:36.520Z,6.40
2022-11-25T12:19:52.269Z,6.30
2022-11-25T12:22:05.098Z,6.30
2022-11-25T12:24:22.715Z,6.30
2022-11-25T12:26:36.982Z,6.30
2022-11-25T12:28:50.944Z,6.30
2022-11-25T12:31:10.535Z,6.40
2022-11-25T12:33:24.363Z,6.30
2022-11-25T12:35:55.422Z,6.30
2022-11-25T12:38:11.750Z,6.30
2022-11-25T12:40:27.503Z,6.40
2022-11-25T12:42:35.201Z,6.40
2022-11-25T12:44:58.653Z,6.40
2022-11-25T12:47:04.766Z,6.40
2022-11-25T12:49:17.325Z,6.40
2022-11-25T12:51:50.595Z,6.30
2022-11-25T12:54:15.855Z,6.30
2022-11-25T12:56:37.616Z,6.30
2022-11-25T12:58:57.734Z,6.30
2022-11-25T13:01:51.743Z,6.30
2022-11-25T13:04:42.381Z,6.30
2022-11-25T13:07:30.039Z,6.30
2022-11-25T13:09:58.765Z,6.30
2022-11-25T13:12:30.587Z,6.30
2022-11-25T13:15:04.956Z,6.30
2022-11-25T13:17:15.373Z,6.30
2022-11-25T13:19:22.498Z,6.30
2022-11-25T13:21:29.127Z,6.30
2022-11-25T13:23:49.804Z,6.30
2022-11-25T13:26:18.355Z,6.40
2022-11-25T13:28:38.061Z,6.40
2022-11-25T13:30:43.800Z,6.40
2022-11-25T13:32:51.476Z,6.40
2022-11-25T13:35:41.608Z,6.40
2022-11-25T13:37:46.653Z,6.50
2022-11-25T13:39:51.745Z,6.60
2022-11-25T13:42:07.799Z,6.60
2022-11-25T13:44:32.563Z,6.70
2022-11-25T13:46:46.480Z,6.70
2022-11-25T13:48:51.855Z,6.70
2022-11-25T13:51:19.060Z,6.70
2022-11-25T13:53:29.006Z,6.70
2022-11-25T13:55:39.096Z,6.70
2022-11-25T13:57:47.263Z,6.70
2022-11-25T14:00:01.660Z,6.70
2022-11-25T14:02:51.420Z,6.70
2022-11-25T14:05:04.607Z,6.70
2022-11-25T14:07:27.990Z,6.70
2022-11-25T14:09:53.292Z,6.70
2022-11-25T14:12:25.446Z,6.70
2022-11-25T14:15:18.316Z,6.70
2022-11-25T14:18:06.435Z,6.70
2022-11-25T14:20:36.389Z,6.70
2022-11-25T14:23:22.870Z,6.70
2022-11-25T14:25:31.850Z,6.70
2022-11-25T14:27:39.334Z,6.80
2022-11-25T14:29:51.285Z,6.80
2022-11-25T14:32:05.688Z,6.80
2022-11-25T14:34:18.689Z,6.80
2022-11-25T14:36:31.903Z,6.70
2022-11-25T14:38:46.444Z,6.70
2022-11-25T14:40:57.249Z,6.70
2022-11-25T14:43:08.479Z,6.70
2022-11-25T14:45:26.507Z,6.70
2022-11-25T14:47:39.165Z,6.70
2022-11-25T14:50:11.715Z,6.60
2022-11-25T14:52:25.517Z,6.60
2022-11-25T14:54:31.521Z,6.60
2022-11-25T14:56:39.313Z,6.60
2022-11-25T14:58:49.016Z,6.60
2022-11-25T15:01:01.955Z,6.60
2022-11-25T15:03:10.249Z,6.60
2022-11-25T15:05:26.260Z,6.60
2022-11-25T15:07:32.109Z,6.60
2022-11-25T15:09:45.669Z,6.60
2022-11-25T15:11:53.827Z,6.60
2022-11-25T15:14:03.975Z,6.60
2022-11-25T15:16:17.647Z,6.50
2022-11-25T15:18:28.109Z,6.50
2022-11-25T15:20:35.590Z,6.50
2022-11-25T15:22:40.722Z,6.40
2022-11-25T15:24:54.529Z,6.40
2022-11-25T15:27:05.816Z,6.40
2022-11-25T15:29:15.655Z,6.40
2022-11-25T15:31:23.885Z,6.40
2022-11-25T15:33:34.093Z,6.40
2022-11-25T15:35:39.146Z,6.40
2022-11-25T15:37:44.195Z,6.40
2022-11-25T15:39:49.501Z,6.40
2022-11-25T15:41:57.503Z,6.40
2022-11-25T15:44:06.085Z,6.40
2022-11-25T15:46:14.724Z,6.40
2022-11-25T15:48:30.344Z,6.40
2022-11-25T15:50:38.089Z,6.40
2022-11-25T15:52:50.911Z,6.40
2022-11-25T15:55:03.054Z,6.40
2022-11-25T15:57:23.006Z,6.40
2022-11-25T16:00:05.487Z,6.30
2022-11-25T16:02:57.710Z,6.30
2022-11-25T16:05:36.580Z,6.40
2022-11-25T16:08:04.156Z,6.30
2022-11-25T16:10:20.935Z,6.30
2022-11-25T16:12:25.928Z,6.30
2022-11-25T16:14:37.076Z,6.30
2022-11-25T16:16:42.216Z,6.30
2022-11-25T16:19:00.859Z,6.30
2022-11-25T16:21:10.876Z,6.30
2022-11-25T16:23:20.718Z,6.30
2022-11-25T16:25:26.012Z,6.30
2022-11-25T16:27:32.376Z,6.30
2022-11-25T16:29:42.233Z,6.30
2022-11-25T16:31:47.470Z,6.30
2022-11-25T16:33:56.120Z,6.30
2022-11-25T16:36:05.272Z,6.30
2022-11-25T16:38:13.897Z,6.30
2022-11-25T16:40:23.006Z,6.30
2022-11-25T16:42:28.017Z,6.30
2022-11-25T16:44:35.934Z,6.30
2022-11-25T16:46:40.941Z,6.30
2022-11-25T16:48:46.913Z,6.30
2022-11-25T16:50:52.971Z,6.30
2022-11-25T16:52:58.007Z,6.30
2022-11-25T16:55:02.992Z,6.30
2022-11-25T16:57:16.589Z,6.30
2022-11-25T16:59:26.605Z,6.30
2022-11-25T17:01:33.571Z,6.20
2022-11-25T17:03:42.477Z,6.30
2022-11-25T17:05:48.300Z,6.20
2022-11-25T17:07:53.705Z,6.20
2022-11-25T17:09:58.805Z,6.20
2022-11-25T17:12:04.564Z,6.20
2022-11-25T17:14:23.177Z,6.20
2022-11-25T17:16:31.270Z,6.20
2022-11-25T17:18:36.436Z,6.20
2022-11-25T17:20:41.642Z,6.20
2022-11-25T17:22:46.724Z,6.20
2022-11-25T17:24:52.117Z,6.20
2022-11-25T17:27:02.329Z,6.20
2022-11-25T17:29:16.829Z,6.20
2022-11-25T17:31:22.815Z,6.20
2022-11-25T17:33:27.861Z,6.20
2022-11-25T17:35:33.229Z,6.10
2022-11-25T17:37:38.465Z,6.10
2022-11-25T17:39:43.466Z,6.10
2022-11-25T17:41:52.150Z,6.10
2022-11-25T17:43:58.008Z,6.00
2022-11-25T17:46:05.667Z,6.00
2022-11-25T17:48:14.016Z,6.00
2022-11-25T17:50:22.607Z,6.00
2022-11-25T17:52:27.614Z,6.00
2022-11-25T17:54:33.672Z,5.90
2022-11-25T17:56:39.674Z,5.90
2022-11-25T17:58:44.986Z,5.90
2022-11-25T18:00:50.205Z,5.90
2022-11-25T18:02:58.322Z,5.90
2022-11-25T18:05:03.999Z,5.90
2022-11-25T18:07:09.039Z,5.90
2022-11-25T18:09:14.541Z,5.90
2022-11-25T18:11:22.977Z,5.90
2022-11-25T18:13:30.282Z,5.90
2022-11-25T18:15:36.721Z,5.80
2022-11-25T18:17:41.742Z,5.80
2022-11-25T18:19:54.966Z,5.80
2022-11-25T18:22:04.259Z,5.80
2022-11-25T18:24:10.245Z,5.80
2022-11-25T18:26:16.058Z,5.80
2022-11-25T18:28:25.808Z,5.80
2022-11-25T18:30:34.360Z,5.80
2022-11-25T18:32:39.178Z,5.80
2022-11-25T18:34:50.352Z,5.90
2022-11-25T18:36:55.552Z,5.90
2022-11-25T18:39:00.795Z,5.90
2022-11-25T18:41:06.302Z,6.00
2022-11-25T18:43:18.756Z,6.00
2022-11-25T18:45:27.749Z,6.00
2022-11-25T18:47:32.835Z,6.00
2022-11-25T18:49:39.665Z,6.00
2022-11-25T18:51:47.602Z,5.90
2022-11-25T18:53:53.905Z,6.00
2022-11-25T18:55:58.977Z,6.00
2022-11-25T18:58:04.730Z,6.00
2022-11-25T19:00:33.908Z,5.90
2022-11-25T19:02:39.208Z,6.00
2022-11-25T19:04:44.985Z,5.90
2022-11-25T19:06:52.575Z,5.90
2022-11-25T19:08:57.778Z,5.90
2022-11-25T19:11:03.114Z,5.90
2022-11-25T19:13:17.371Z,5.90
2022-11-25T19:15:25.771Z,5.90
2022-11-25T19:17:31.214Z,5.90
2022-11-25T19:19:37.915Z,6.00
2022-11-25T19:21:42.942Z,6.00
2022-11-25T19:23:53.764Z,6.00
2022-11-25T19:26:07.626Z,6.00
2022-11-25T19:28:16.842Z,6.00
2022-11-25T19:30:25.186Z,5.90
2022-11-25T19:32:33.264Z,5.90
2022-11-25T19:34:44.050Z,5.90
2022-11-25T19:36:49.250Z,5.90
2022-11-25T19:38:57.207Z,5.80
2022-11-25T19:41:02.156Z,5.80
2022-11-25T19:43:08.615Z,5.80
2022-11-25T19:45:16.560Z,5.80
2022-11-25T19:47:23.533Z,5.80
2022-11-25T19:49:28.746Z,5.80
2022-11-25T19:51:37.124Z,5.80
2022-11-25T19:53:45.422Z,5.90
2022-11-25T19:55:53.667Z,5.90
2022-11-25T19:57:59.579Z,5.90
2022-11-25T20:00:04.694Z,5.90
2022-11-25T20:02:18.786Z,5.90
2022-11-25T20:04:24.961Z,5.90
2022-11-25T20:06:30.606Z,5.90
2022-11-25T20:08:35.707Z,5.90
2022-11-25T20:10:42.070Z,5.90
2022-11-25T20:12:51.563Z,5.80
2022-11-25T20:14:56.627Z,5.80
2022-11-25T20:17:02.016Z,5.80
2022-11-25T20:19:08.701Z,5.80
2022-11-25T20:21:21.128Z,5.80
2022-11-25T20:23:31.993Z,5.80
2022-11-25T20:25:47.187Z,5.80
2022-11-25T20:27:55.073Z,5.90
2022-11-25T20:29:59.980Z,5.90
2022-11-25T20:32:21.899Z,5.90
2022-11-25T20:34:28.308Z,5.90
2022-11-25T20:36:36.760Z,5.90
2022-11-25T20:38:48.456Z,5.90
2022-11-25T20:40:58.219Z,5.90
2022-11-25T20:43:05.960Z,5.90
2022-11-25T20:45:17.798Z,5.90
2022-11-25T20:47:26.381Z,5.80
2022-11-25T20:49:33.273Z,5.90
2022-11-25T20:51:38.606Z,5.80
2022-11-25T20:53:48.737Z,5.80
2022-11-25T20:55:53.783Z,5.80
2022-11-25T20:57:59.778Z,5.80
2022-11-25T21:00:19.489Z,5.80
2022-11-25T21:02:24.908Z,5.80
2022-11-25T21:04:29.957Z,5.80
2022-11-25T21:06:40.970Z,5.80
2022-11-25T21:08:50.759Z,5.80
2022-11-25T21:10:58.566Z,5.80
2022-11-25T21:13:09.485Z,5.80
2022-11-25T21:15:22.460Z,5.80
2022-11-25T21:17:27.808Z,5.80
2022-11-25T21:19:34.480Z,5.80
2022-11-25T21:21:42.667Z,5.80
2022-11-25T21:23:50.205Z,5.80
2022-11-25T21:25:55.433Z,5.80
2022-11-25T21:28:00.685Z,5.80
2022-11-25T21:30:05.955Z,5.80
2022-11-25T21:32:23.241Z,5.80
2022-11-25T21:34:28.425Z,5.90
2022-11-25T21:36:34.711Z,5.90
2022-11-25T21:38:39.997Z,5.80
2022-11-25T21:40:48.504Z,5.80
2022-11-25T21:42:53.656Z,5.80
2022-11-25T21:44:58.825Z,5.80
2022-11-25T21:47:05.285Z,5.70
2022-11-25T21:49:15.202Z,5.70
2022-11-25T21:51:24.436Z,5.70
2022-11-25T21:53:37.020Z,5.60
2022-11-25T21:55:42.544Z,5.60
2022-11-25T21:57:48.009Z,5.50
2022-11-25T21:59:53.097Z,5.50
2022-11-25T22:01:59.174Z,5.50
2022-11-25T22:04:05.696Z,5.40
2022-11-25T22:06:22.790Z,5.30
2022-11-25T22:08:28.168Z,5.30
2022-11-25T22:10:33.637Z,5.40
2022-11-25T22:12:44.252Z,5.40
2022-11-25T22:14:49.606Z,5.40
2022-11-25T22:16:55.139Z,5.40
2022-11-25T22:19:01.538Z,5.40
2022-11-25T22:21:06.947Z,5.40
2022-11-25T22:23:19.602Z,5.40
2022-11-25T22:25:27.461Z,5.40
2022-11-25T22:27:36.411Z,5.40
2022-11-25T23:15:02.133Z,5.30
2022-11-25T23:17:20.988Z,5.30
2022-11-25T23:19:26.208Z,5.30
2022-11-25T23:21:31.442Z,5.40
2022-11-25T23:27:31.848Z,5.40
2022-11-25T23:29:36.912Z,5.40
2022-11-25T23:31:44.757Z,5.30
2022-11-25T23:33:51.180Z,5.30
2022-11-25T23:35:56.729Z,5.30
2022-11-25T23:38:02.074Z,5.30
2022-11-25T23:40:09.056Z,5.30
2022-11-25T23:42:20.517Z,5.30
2022-11-25T23:44:31.680Z,5.30
2022-11-25T23:46:39.138Z,5.40
2022-11-25T23:48:54.912Z,5.30
2022-11-25T23:51:01.851Z,5.30
2022-11-25T23:53:10.681Z,5.30
2022-11-25T23:55:21.097Z,5.30
2022-11-25T23:57:30.820Z,5.30
2022-11-25T23:59:35.776Z,5.30
